메인 페이지
METAR-TAF:

METAR-TAF

공항 :

야쿠츠크 공항

야쿠츠크, 러시아

위도: 62-01N, 경도: 129-43E, 고도: 103m

현재 날씨관측

예보는 43분 전, 23:00시(UTC)에 발표되었습니다.
남동4kt
온도 15°C
습도 33%
기압 1006 hPa
시정 10km 이상
1500m 미만 상공 구름 및 적란운 없음

METAR: UEEE 262300Z 14002MPS CAVOK 15/M01 Q1006 R23L/09//60 NOSIG RMK QFE746

시각: 08:43 (23:43 UTC)

예보

예보는 43분 전, 23:00시(UTC)에 발표되었습니다.
예보 대상 시간: 27일 00시부터 28일 06시까지 (UTC)
남남동6kt
시정 10km 이상
1500m 미만 상공 구름 및 적란운 없음

TAF: UEEE 262300Z 2700/2806 16003MPS CAVOK

4,000개 이상의 공항 관측 자료 및 예보 (METAR 및 TAF 보고).

지도상에서 검색 가능한 기상관측소가 노란 점과 빨간 점으로 표시되어 있습니다.

기상관측소 명을 보려면 표시 위로 마우스를 이동하세요.

날씨 관측과 예보를 보려면 클릭하세요.

지도 변경 : 확대하려면 엑스 표시가 있는 녹색 버튼, 축소하려면 빼기 표시가 있는 녹색 버튼, 다음 페이지의 지도를 보려면 녹색 화살표를 클릭하세요.


METAR-TAF: